sensor_id;sensor_type;location;lat;lon;timestamp;P1;durP1;ratioP1;P2;durP2;ratioP2
11927;SDS011;6023;47.070;15.126;2022-12-29T00:01:11;16.33;;;11.93;;
11927;SDS011;6023;47.070;15.126;2022-12-29T00:03:40;15.40;;;11.10;;
11927;SDS011;6023;47.070;15.126;2022-12-29T00:06:10;15.97;;;10.73;;
11927;SDS011;6023;47.070;15.126;2022-12-29T00:08:39;14.90;;;10.83;;
11927;SDS011;6023;47.070;15.126;2022-12-29T00:11:08;17.07;;;11.57;;
11927;SDS011;6023;47.070;15.126;2022-12-29T00:13:37;17.00;;;11.00;;
11927;SDS011;6023;47.070;15.126;2022-12-29T00:16:20;14.47;;;10.53;;
11927;SDS011;6023;47.070;15.126;2022-12-29T00:18:48;16.40;;;10.87;;
11927;SDS011;6023;47.070;15.126;2022-12-29T00:21:19;14.63;;;10.73;;
11927;SDS011;6023;47.070;15.126;2022-12-29T00:24:08;13.50;;;9.93;;
11927;SDS011;6023;47.070;15.126;2022-12-29T00:26:58;13.30;;;9.57;;
11927;SDS011;6023;47.070;15.126;2022-12-29T00:29:53;13.13;;;9.27;;
11927;SDS011;6023;47.070;15.126;2022-12-29T00:32:39;12.67;;;8.87;;
11927;SDS011;6023;47.070;15.126;2022-12-29T00:35:28;12.50;;;8.23;;
11927;SDS011;6023;47.070;15.126;2022-12-29T00:37:58;11.53;;;8.53;;
11927;SDS011;6023;47.070;15.126;2022-12-29T00:40:47;11.73;;;8.70;;
11927;SDS011;6023;47.070;15.126;2022-12-29T00:43:34;12.33;;;8.70;;
11927;SDS011;6023;47.070;15.126;2022-12-29T00:46:20;11.40;;;8.60;;
11927;SDS011;6023;47.070;15.126;2022-12-29T00:48:49;13.13;;;8.63;;
11927;SDS011;6023;47.070;15.126;2022-12-29T00:51:35;11.17;;;8.10;;
11927;SDS011;6023;47.070;15.126;2022-12-29T00:54:06;11.83;;;8.50;;
11927;SDS011;6023;47.070;15.126;2022-12-29T00:56:35;11.07;;;7.90;;
11927;SDS011;6023;47.070;15.126;2022-12-29T00:59:04;9.43;;;7.63;;
11927;SDS011;6023;47.070;15.126;2022-12-29T01:01:33;9.90;;;7.40;;
11927;SDS011;6023;47.070;15.126;2022-12-29T01:04:03;9.40;;;7.43;;
11927;SDS011;6023;47.070;15.126;2022-12-29T01:06:32;15.27;;;10.70;;
11927;SDS011;6023;47.070;15.126;2022-12-29T01:09:00;21.60;;;13.47;;
11927;SDS011;6023;47.070;15.126;2022-12-29T01:11:48;21.13;;;13.57;;
11927;SDS011;6023;47.070;15.126;2022-12-29T01:14:17;22.67;;;13.97;;
11927;SDS011;6023;47.070;15.126;2022-12-29T01:16:46;20.20;;;13.03;;
11927;SDS011;6023;47.070;15.126;2022-12-29T01:19:16;17.43;;;12.37;;
11927;SDS011;6023;47.070;15.126;2022-12-29T01:21:45;16.73;;;11.60;;
11927;SDS011;6023;47.070;15.126;2022-12-29T01:24:14;14.60;;;10.17;;
11927;SDS011;6023;47.070;15.126;2022-12-29T01:26:43;13.57;;;9.60;;
11927;SDS011;6023;47.070;15.126;2022-12-29T01:29:13;13.63;;;9.23;;
11927;SDS011;6023;47.070;15.126;2022-12-29T01:31:42;14.07;;;9.50;;
11927;SDS011;6023;47.070;15.126;2022-12-29T01:34:11;12.53;;;9.30;;
11927;SDS011;6023;47.070;15.126;2022-12-29T01:36:40;12.10;;;8.33;;
11927;SDS011;6023;47.070;15.126;2022-12-29T01:39:08;10.93;;;8.20;;
11927;SDS011;6023;47.070;15.126;2022-12-29T01:41:37;11.23;;;8.73;;
11927;SDS011;6023;47.070;15.126;2022-12-29T01:47:10;12.03;;;8.77;;
11927;SDS011;6023;47.070;15.126;2022-12-29T01:49:39;12.07;;;8.90;;
11927;SDS011;6023;47.070;15.126;2022-12-29T01:52:08;10.63;;;8.13;;
11927;SDS011;6023;47.070;15.126;2022-12-29T01:54:37;12.67;;;8.57;;
11927;SDS011;6023;47.070;15.126;2022-12-29T01:57:10;12.30;;;8.53;;
11927;SDS011;6023;47.070;15.126;2022-12-29T01:59:41;12.27;;;8.67;;
11927;SDS011;6023;47.070;15.126;2022-12-29T02:02:12;10.63;;;7.93;;
11927;SDS011;6023;47.070;15.126;2022-12-29T02:04:41;10.77;;;7.60;;
11927;SDS011;6023;47.070;15.126;2022-12-29T02:07:13;9.40;;;7.40;;
11927;SDS011;6023;47.070;15.126;2022-12-29T02:09:46;10.33;;;7.90;;
11927;SDS011;6023;47.070;15.126;2022-12-29T02:12:15;9.67;;;7.10;;
11927;SDS011;6023;47.070;15.126;2022-12-29T02:14:44;10.27;;;6.63;;
11927;SDS011;6023;47.070;15.126;2022-12-29T02:17:16;9.23;;;7.20;;
11927;SDS011;6023;47.070;15.126;2022-12-29T02:20:02;8.20;;;6.40;;
11927;SDS011;6023;47.070;15.126;2022-12-29T02:22:58;9.10;;;6.37;;
11927;SDS011;6023;47.070;15.126;2022-12-29T02:28:33;9.57;;;6.90;;
11927;SDS011;6023;47.070;15.126;2022-12-29T02:31:24;8.60;;;6.70;;
11927;SDS011;6023;47.070;15.126;2022-12-29T02:33:58;8.93;;;6.63;;
11927;SDS011;6023;47.070;15.126;2022-12-29T02:36:34;8.60;;;6.40;;
11927;SDS011;6023;47.070;15.126;2022-12-29T02:39:09;8.07;;;6.27;;
11927;SDS011;6023;47.070;15.126;2022-12-29T02:41:46;8.30;;;6.10;;
11927;SDS011;6023;47.070;15.126;2022-12-29T02:44:19;8.03;;;5.60;;
11927;SDS011;6023;47.070;15.126;2022-12-29T02:46:55;6.77;;;4.87;;
11927;SDS011;6023;47.070;15.126;2022-12-29T02:49:27;7.93;;;5.60;;
11927;SDS011;6023;47.070;15.126;2022-12-29T02:52:02;7.00;;;5.20;;
11927;SDS011;6023;47.070;15.126;2022-12-29T02:54:33;5.83;;;4.73;;
11927;SDS011;6023;47.070;15.126;2022-12-29T02:57:11;6.33;;;4.37;;
11927;SDS011;6023;47.070;15.126;2022-12-29T02:59:41;5.33;;;4.33;;
11927;SDS011;6023;47.070;15.126;2022-12-29T03:02:22;6.27;;;4.43;;
11927;SDS011;6023;47.070;15.126;2022-12-29T03:07:49;5.23;;;3.97;;
11927;SDS011;6023;47.070;15.126;2022-12-29T03:10:26;6.10;;;4.00;;
11927;SDS011;6023;47.070;15.126;2022-12-29T03:13:02;4.60;;;3.80;;
11927;SDS011;6023;47.070;15.126;2022-12-29T03:15:50;5.13;;;3.90;;
11927;SDS011;6023;47.070;15.126;2022-12-29T03:18:43;5.67;;;3.93;;
11927;SDS011;6023;47.070;15.126;2022-12-29T03:21:16;6.33;;;4.23;;
11927;SDS011;6023;47.070;15.126;2022-12-29T03:23:47;5.93;;;3.90;;
11927;SDS011;6023;47.070;15.126;2022-12-29T03:26:16;7.83;;;4.60;;
11927;SDS011;6023;47.070;15.126;2022-12-29T03:28:48;6.30;;;5.00;;
11927;SDS011;6023;47.070;15.126;2022-12-29T03:31:20;6.37;;;5.20;;
11927;SDS011;6023;47.070;15.126;2022-12-29T03:33:51;8.13;;;5.50;;
11927;SDS011;6023;47.070;15.126;2022-12-29T03:36:23;6.53;;;4.50;;
11927;SDS011;6023;47.070;15.126;2022-12-29T03:38:56;7.07;;;4.60;;
11927;SDS011;6023;47.070;15.126;2022-12-29T03:41:30;5.73;;;4.43;;
11927;SDS011;6023;47.070;15.126;2022-12-29T03:44:00;5.70;;;4.50;;
11927;SDS011;6023;47.070;15.126;2022-12-29T03:46:28;5.97;;;4.43;;
11927;SDS011;6023;47.070;15.126;2022-12-29T03:48:58;6.70;;;4.50;;
11927;SDS011;6023;47.070;15.126;2022-12-29T03:51:27;5.87;;;4.10;;
11927;SDS011;6023;47.070;15.126;2022-12-29T03:53:55;6.37;;;4.70;;
11927;SDS011;6023;47.070;15.126;2022-12-29T03:56:24;4.40;;;3.53;;
11927;SDS011;6023;47.070;15.126;2022-12-29T03:58:52;5.33;;;3.87;;
11927;SDS011;6023;47.070;15.126;2022-12-29T04:01:21;5.30;;;3.90;;
11927;SDS011;6023;47.070;15.126;2022-12-29T04:03:50;4.77;;;3.93;;
11927;SDS011;6023;47.070;15.126;2022-12-29T04:06:20;4.37;;;3.57;;
11927;SDS011;6023;47.070;15.126;2022-12-29T04:08:48;4.90;;;3.37;;
11927;SDS011;6023;47.070;15.126;2022-12-29T04:11:17;3.93;;;3.30;;
11927;SDS011;6023;47.070;15.126;2022-12-29T04:13:46;7.53;;;4.47;;
11927;SDS011;6023;47.070;15.126;2022-12-29T04:16:14;11.93;;;6.50;;
11927;SDS011;6023;47.070;15.126;2022-12-29T04:18:43;10.00;;;5.77;;
11927;SDS011;6023;47.070;15.126;2022-12-29T04:21:12;8.23;;;4.67;;
11927;SDS011;6023;47.070;15.126;2022-12-29T04:23:42;7.73;;;4.73;;
11927;SDS011;6023;47.070;15.126;2022-12-29T04:26:11;7.53;;;4.73;;
11927;SDS011;6023;47.070;15.126;2022-12-29T04:28:40;6.37;;;3.90;;
11927;SDS011;6023;47.070;15.126;2022-12-29T04:31:09;5.60;;;3.70;;
11927;SDS011;6023;47.070;15.126;2022-12-29T04:33:37;6.57;;;3.90;;
11927;SDS011;6023;47.070;15.126;2022-12-29T04:36:06;4.40;;;3.30;;
11927;SDS011;6023;47.070;15.126;2022-12-29T04:38:34;6.87;;;4.10;;
11927;SDS011;6023;47.070;15.126;2022-12-29T04:41:05;5.03;;;3.90;;
11927;SDS011;6023;47.070;15.126;2022-12-29T04:43:33;6.47;;;4.63;;
11927;SDS011;6023;47.070;15.126;2022-12-29T04:46:02;7.67;;;5.03;;
11927;SDS011;6023;47.070;15.126;2022-12-29T04:48:30;6.70;;;4.70;;
11927;SDS011;6023;47.070;15.126;2022-12-29T04:51:00;6.10;;;4.50;;
11927;SDS011;6023;47.070;15.126;2022-12-29T04:53:28;5.90;;;4.33;;
11927;SDS011;6023;47.070;15.126;2022-12-29T04:55:57;6.53;;;4.47;;
11927;SDS011;6023;47.070;15.126;2022-12-29T04:58:27;6.70;;;4.47;;
11927;SDS011;6023;47.070;15.126;2022-12-29T05:00:55;6.93;;;5.00;;
11927;SDS011;6023;47.070;15.126;2022-12-29T05:03:24;6.97;;;5.00;;
11927;SDS011;6023;47.070;15.126;2022-12-29T05:05:53;7.13;;;4.87;;
11927;SDS011;6023;47.070;15.126;2022-12-29T05:08:22;6.43;;;4.33;;
11927;SDS011;6023;47.070;15.126;2022-12-29T05:10:54;5.63;;;4.03;;
11927;SDS011;6023;47.070;15.126;2022-12-29T05:13:22;5.30;;;4.00;;
11927;SDS011;6023;47.070;15.126;2022-12-29T05:15:52;5.60;;;3.90;;
11927;SDS011;6023;47.070;15.126;2022-12-29T05:18:21;4.17;;;3.37;;
11927;SDS011;6023;47.070;15.126;2022-12-29T05:20:50;3.93;;;3.20;;
11927;SDS011;6023;47.070;15.126;2022-12-29T05:23:19;6.00;;;3.47;;
11927;SDS011;6023;47.070;15.126;2022-12-29T05:25:47;4.37;;;3.20;;
11927;SDS011;6023;47.070;15.126;2022-12-29T05:28:16;4.27;;;3.17;;
11927;SDS011;6023;47.070;15.126;2022-12-29T05:30:46;4.40;;;3.10;;
11927;SDS011;6023;47.070;15.126;2022-12-29T05:33:18;3.60;;;3.20;;
11927;SDS011;6023;47.070;15.126;2022-12-29T05:35:46;4.20;;;2.87;;
11927;SDS011;6023;47.070;15.126;2022-12-29T05:38:15;3.23;;;2.80;;
11927;SDS011;6023;47.070;15.126;2022-12-29T05:40:44;4.83;;;4.00;;
11927;SDS011;6023;47.070;15.126;2022-12-29T05:43:13;6.10;;;4.20;;
11927;SDS011;6023;47.070;15.126;2022-12-29T05:45:41;7.73;;;5.43;;
11927;SDS011;6023;47.070;15.126;2022-12-29T05:48:10;8.53;;;5.93;;
11927;SDS011;6023;47.070;15.126;2022-12-29T05:50:39;11.73;;;8.00;;
11927;SDS011;6023;47.070;15.126;2022-12-29T05:53:08;15.10;;;10.23;;
11927;SDS011;6023;47.070;15.126;2022-12-29T05:55:37;17.63;;;12.00;;
11927;SDS011;6023;47.070;15.126;2022-12-29T05:58:12;13.90;;;8.57;;
11927;SDS011;6023;47.070;15.126;2022-12-29T06:00:41;13.63;;;8.33;;
11927;SDS011;6023;47.070;15.126;2022-12-29T06:03:09;10.57;;;6.60;;
11927;SDS011;6023;47.070;15.126;2022-12-29T06:05:39;7.30;;;5.60;;
11927;SDS011;6023;47.070;15.126;2022-12-29T06:08:08;9.00;;;6.40;;
11927;SDS011;6023;47.070;15.126;2022-12-29T06:10:37;8.67;;;6.20;;
11927;SDS011;6023;47.070;15.126;2022-12-29T06:13:05;11.07;;;7.10;;
11927;SDS011;6023;47.070;15.126;2022-12-29T06:15:34;11.27;;;7.67;;
11927;SDS011;6023;47.070;15.126;2022-12-29T06:18:02;13.07;;;8.80;;
11927;SDS011;6023;47.070;15.126;2022-12-29T06:20:31;12.93;;;8.90;;
11927;SDS011;6023;47.070;15.126;2022-12-29T06:23:01;11.07;;;7.60;;
11927;SDS011;6023;47.070;15.126;2022-12-29T06:25:30;10.07;;;6.27;;
11927;SDS011;6023;47.070;15.126;2022-12-29T06:28:00;8.53;;;6.23;;
11927;SDS011;6023;47.070;15.126;2022-12-29T06:30:28;7.13;;;5.50;;
11927;SDS011;6023;47.070;15.126;2022-12-29T06:32:57;6.50;;;5.00;;
11927;SDS011;6023;47.070;15.126;2022-12-29T06:35:26;7.20;;;5.00;;
11927;SDS011;6023;47.070;15.126;2022-12-29T06:37:55;6.50;;;4.93;;
11927;SDS011;6023;47.070;15.126;2022-12-29T06:40:25;7.87;;;5.70;;
11927;SDS011;6023;47.070;15.126;2022-12-29T06:42:54;9.43;;;6.90;;
11927;SDS011;6023;47.070;15.126;2022-12-29T06:45:22;12.53;;;8.87;;
11927;SDS011;6023;47.070;15.126;2022-12-29T06:47:51;16.50;;;11.17;;
11927;SDS011;6023;47.070;15.126;2022-12-29T06:50:19;20.93;;;13.57;;
11927;SDS011;6023;47.070;15.126;2022-12-29T06:52:48;17.80;;;12.82;;
11927;SDS011;6023;47.070;15.126;2022-12-29T06:55:17;10.50;;;7.10;;
11927;SDS011;6023;47.070;15.126;2022-12-29T06:57:46;5.47;;;4.23;;
11927;SDS011;6023;47.070;15.126;2022-12-29T07:00:15;15.23;;;9.80;;
11927;SDS011;6023;47.070;15.126;2022-12-29T07:02:48;18.90;;;14.50;;
11927;SDS011;6023;47.070;15.126;2022-12-29T07:05:17;11.37;;;8.27;;
11927;SDS011;6023;47.070;15.126;2022-12-29T07:07:46;9.50;;;7.60;;
11927;SDS011;6023;47.070;15.126;2022-12-29T07:10:14;9.70;;;7.77;;
11927;SDS011;6023;47.070;15.126;2022-12-29T07:12:43;10.57;;;8.90;;
11927;SDS011;6023;47.070;15.126;2022-12-29T07:15:13;9.83;;;7.93;;
11927;SDS011;6023;47.070;15.126;2022-12-29T07:17:42;8.33;;;6.57;;
11927;SDS011;6023;47.070;15.126;2022-12-29T07:20:11;8.20;;;6.57;;
11927;SDS011;6023;47.070;15.126;2022-12-29T07:22:39;7.67;;;6.00;;
11927;SDS011;6023;47.070;15.126;2022-12-29T07:25:08;6.97;;;5.63;;
11927;SDS011;6023;47.070;15.126;2022-12-29T07:27:36;7.57;;;5.57;;
11927;SDS011;6023;47.070;15.126;2022-12-29T07:30:05;6.97;;;5.40;;
11927;SDS011;6023;47.070;15.126;2022-12-29T07:32:36;5.40;;;4.27;;
11927;SDS011;6023;47.070;15.126;2022-12-29T07:35:05;8.93;;;6.83;;
11927;SDS011;6023;47.070;15.126;2022-12-29T07:37:34;10.80;;;7.00;;
11927;SDS011;6023;47.070;15.126;2022-12-29T07:40:03;12.50;;;8.60;;
11927;SDS011;6023;47.070;15.126;2022-12-29T07:42:32;8.03;;;5.77;;
11927;SDS011;6023;47.070;15.126;2022-12-29T07:45:01;7.27;;;5.63;;
11927;SDS011;6023;47.070;15.126;2022-12-29T07:47:30;6.07;;;4.83;;
11927;SDS011;6023;47.070;15.126;2022-12-29T07:50:00;5.53;;;4.30;;
11927;SDS011;6023;47.070;15.126;2022-12-29T07:52:29;6.33;;;4.37;;
11927;SDS011;6023;47.070;15.126;2022-12-29T07:54:58;5.30;;;4.37;;
11927;SDS011;6023;47.070;15.126;2022-12-29T07:57:26;5.70;;;4.87;;
11927;SDS011;6023;47.070;15.126;2022-12-29T07:59:58;6.90;;;4.50;;
11927;SDS011;6023;47.070;15.126;2022-12-29T08:02:26;7.03;;;5.17;;
11927;SDS011;6023;47.070;15.126;2022-12-29T08:04:56;6.30;;;4.80;;
11927;SDS011;6023;47.070;15.126;2022-12-29T08:07:26;7.13;;;5.00;;
11927;SDS011;6023;47.070;15.126;2022-12-29T08:09:54;10.13;;;7.57;;
11927;SDS011;6023;47.070;15.126;2022-12-29T08:12:23;23.60;;;16.73;;
11927;SDS011;6023;47.070;15.126;2022-12-29T08:14:52;8.47;;;6.90;;
11927;SDS011;6023;47.070;15.126;2022-12-29T08:17:21;14.43;;;9.43;;
11927;SDS011;6023;47.070;15.126;2022-12-29T08:19:49;13.33;;;8.10;;
11927;SDS011;6023;47.070;15.126;2022-12-29T08:22:18;12.77;;;9.03;;
11927;SDS011;6023;47.070;15.126;2022-12-29T08:24:48;12.30;;;8.20;;
11927;SDS011;6023;47.070;15.126;2022-12-29T08:27:16;12.07;;;8.70;;
11927;SDS011;6023;47.070;15.126;2022-12-29T08:29:47;14.93;;;9.73;;
11927;SDS011;6023;47.070;15.126;2022-12-29T08:32:15;12.93;;;9.87;;
11927;SDS011;6023;47.070;15.126;2022-12-29T08:34:44;14.93;;;9.90;;
11927;SDS011;6023;47.070;15.126;2022-12-29T08:37:13;15.60;;;10.50;;
11927;SDS011;6023;47.070;15.126;2022-12-29T08:39:41;15.67;;;11.20;;
11927;SDS011;6023;47.070;15.126;2022-12-29T08:42:11;21.93;;;15.10;;
11927;SDS011;6023;47.070;15.126;2022-12-29T08:44:40;18.40;;;14.07;;
11927;SDS011;6023;47.070;15.126;2022-12-29T08:47:09;19.93;;;14.20;;
11927;SDS011;6023;47.070;15.126;2022-12-29T08:49:38;18.60;;;12.93;;
11927;SDS011;6023;47.070;15.126;2022-12-29T08:52:07;19.03;;;13.33;;
11927;SDS011;6023;47.070;15.126;2022-12-29T08:54:36;18.47;;;13.23;;
11927;SDS011;6023;47.070;15.126;2022-12-29T08:57:04;16.43;;;12.23;;
11927;SDS011;6023;47.070;15.126;2022-12-29T08:59:34;23.30;;;17.00;;
11927;SDS011;6023;47.070;15.126;2022-12-29T09:02:03;22.97;;;15.20;;
11927;SDS011;6023;47.070;15.126;2022-12-29T09:04:31;17.00;;;12.73;;
11927;SDS011;6023;47.070;15.126;2022-12-29T09:07:00;17.50;;;11.47;;
11927;SDS011;6023;47.070;15.126;2022-12-29T09:09:29;13.13;;;10.30;;
11927;SDS011;6023;47.070;15.126;2022-12-29T09:11:57;13.93;;;10.30;;
11927;SDS011;6023;47.070;15.126;2022-12-29T09:14:26;13.43;;;9.83;;
11927;SDS011;6023;47.070;15.126;2022-12-29T09:16:56;12.97;;;9.17;;
11927;SDS011;6023;47.070;15.126;2022-12-29T09:19:42;15.17;;;10.90;;
11927;SDS011;6023;47.070;15.126;2022-12-29T09:22:10;41.93;;;29.10;;
11927;SDS011;6023;47.070;15.126;2022-12-29T09:24:39;20.47;;;14.57;;
11927;SDS011;6023;47.070;15.126;2022-12-29T09:27:08;14.23;;;9.07;;
11927;SDS011;6023;47.070;15.126;2022-12-29T09:29:36;14.93;;;10.90;;
11927;SDS011;6023;47.070;15.126;2022-12-29T09:32:06;17.17;;;12.63;;
11927;SDS011;6023;47.070;15.126;2022-12-29T09:34:42;14.47;;;10.80;;
11927;SDS011;6023;47.070;15.126;2022-12-29T09:37:11;9.83;;;6.97;;
11927;SDS011;6023;47.070;15.126;2022-12-29T09:39:39;8.43;;;5.70;;
11927;SDS011;6023;47.070;15.126;2022-12-29T09:42:09;14.30;;;10.60;;
11927;SDS011;6023;47.070;15.126;2022-12-29T09:44:46;13.57;;;10.00;;
11927;SDS011;6023;47.070;15.126;2022-12-29T09:47:21;13.60;;;9.50;;
11927;SDS011;6023;47.070;15.126;2022-12-29T09:49:52;23.60;;;17.37;;
11927;SDS011;6023;47.070;15.126;2022-12-29T09:52:23;9.57;;;5.90;;
11927;SDS011;6023;47.070;15.126;2022-12-29T09:54:57;8.80;;;6.53;;
11927;SDS011;6023;47.070;15.126;2022-12-29T09:57:36;8.53;;;6.20;;
11927;SDS011;6023;47.070;15.126;2022-12-29T10:00:11;8.13;;;6.63;;
11927;SDS011;6023;47.070;15.126;2022-12-29T10:02:44;7.67;;;5.53;;
11927;SDS011;6023;47.070;15.126;2022-12-29T10:05:26;7.90;;;6.10;;
11927;SDS011;6023;47.070;15.126;2022-12-29T10:08:07;6.17;;;4.50;;
11927;SDS011;6023;47.070;15.126;2022-12-29T10:10:47;6.57;;;4.70;;
11927;SDS011;6023;47.070;15.126;2022-12-29T10:13:24;6.13;;;4.97;;
11927;SDS011;6023;47.070;15.126;2022-12-29T10:16:01;7.73;;;5.47;;
11927;SDS011;6023;47.070;15.126;2022-12-29T10:18:39;13.93;;;6.03;;
11927;SDS011;6023;47.070;15.126;2022-12-29T10:21:18;12.47;;;8.00;;
11927;SDS011;6023;47.070;15.126;2022-12-29T10:23:53;25.97;;;15.07;;
11927;SDS011;6023;47.070;15.126;2022-12-29T10:26:23;10.37;;;6.83;;
11927;SDS011;6023;47.070;15.126;2022-12-29T10:28:56;14.40;;;9.13;;
11927;SDS011;6023;47.070;15.126;2022-12-29T10:31:28;13.20;;;8.97;;
11927;SDS011;6023;47.070;15.126;2022-12-29T10:34:02;12.10;;;8.30;;
11927;SDS011;6023;47.070;15.126;2022-12-29T10:36:34;8.80;;;6.30;;
11927;SDS011;6023;47.070;15.126;2022-12-29T10:39:06;10.37;;;6.73;;
11927;SDS011;6023;47.070;15.126;2022-12-29T10:41:43;8.43;;;5.97;;
11927;SDS011;6023;47.070;15.126;2022-12-29T10:44:16;5.77;;;3.50;;
11927;SDS011;6023;47.070;15.126;2022-12-29T10:46:45;4.33;;;3.00;;
11927;SDS011;6023;47.070;15.126;2022-12-29T10:49:21;3.37;;;2.60;;
11927;SDS011;6023;47.070;15.126;2022-12-29T10:51:50;2.93;;;2.30;;
11927;SDS011;6023;47.070;15.126;2022-12-29T10:54:19;2.13;;;1.87;;
11927;SDS011;6023;47.070;15.126;2022-12-29T10:56:51;2.10;;;1.90;;
11927;SDS011;6023;47.070;15.126;2022-12-29T10:59:22;2.97;;;1.90;;
11927;SDS011;6023;47.070;15.126;2022-12-29T11:01:54;4.60;;;2.37;;
11927;SDS011;6023;47.070;15.126;2022-12-29T11:04:35;3.47;;;2.50;;
11927;SDS011;6023;47.070;15.126;2022-12-29T11:07:11;3.60;;;2.17;;
11927;SDS011;6023;47.070;15.126;2022-12-29T11:09:43;2.80;;;2.13;;
11927;SDS011;6023;47.070;15.126;2022-12-29T11:12:20;2.83;;;2.53;;
11927;SDS011;6023;47.070;15.126;2022-12-29T11:15:01;2.40;;;2.20;;
11927;SDS011;6023;47.070;15.126;2022-12-29T11:17:45;2.90;;;2.17;;
11927;SDS011;6023;47.070;15.126;2022-12-29T11:20:29;3.00;;;1.90;;
11927;SDS011;6023;47.070;15.126;2022-12-29T11:23:00;2.37;;;1.80;;
11927;SDS011;6023;47.070;15.126;2022-12-29T11:25:29;1.77;;;1.67;;
11927;SDS011;6023;47.070;15.126;2022-12-29T11:28:00;2.50;;;2.00;;
11927;SDS011;6023;47.070;15.126;2022-12-29T11:30:31;2.50;;;1.77;;
11927;SDS011;6023;47.070;15.126;2022-12-29T11:33:02;1.80;;;1.70;;
11927;SDS011;6023;47.070;15.126;2022-12-29T11:35:34;1.80;;;1.70;;
11927;SDS011;6023;47.070;15.126;2022-12-29T11:38:04;2.40;;;1.80;;
11927;SDS011;6023;47.070;15.126;2022-12-29T11:40:35;2.30;;;2.10;;
11927;SDS011;6023;47.070;15.126;2022-12-29T11:43:06;1.97;;;1.73;;
11927;SDS011;6023;47.070;15.126;2022-12-29T11:45:46;1.70;;;1.60;;
11927;SDS011;6023;47.070;15.126;2022-12-29T11:48:16;3.93;;;1.80;;
11927;SDS011;6023;47.070;15.126;2022-12-29T11:50:50;2.70;;;1.70;;
11927;SDS011;6023;47.070;15.126;2022-12-29T11:53:21;2.50;;;1.93;;
11927;SDS011;6023;47.070;15.126;2022-12-29T11:55:53;1.83;;;1.73;;
11927;SDS011;6023;47.070;15.126;2022-12-29T11:58:28;2.40;;;2.00;;
11927;SDS011;6023;47.070;15.126;2022-12-29T12:01:00;2.17;;;1.97;;
11927;SDS011;6023;47.070;15.126;2022-12-29T12:03:30;1.93;;;1.83;;
11927;SDS011;6023;47.070;15.126;2022-12-29T12:06:02;2.30;;;2.10;;
11927;SDS011;6023;47.070;15.126;2022-12-29T12:08:33;6.00;;;4.50;;
11927;SDS011;6023;47.070;15.126;2022-12-29T12:11:04;2.97;;;2.00;;
11927;SDS011;6023;47.070;15.126;2022-12-29T12:13:37;2.03;;;1.70;;
11927;SDS011;6023;47.070;15.126;2022-12-29T12:16:11;7.97;;;4.40;;
11927;SDS011;6023;47.070;15.126;2022-12-29T12:18:44;3.17;;;2.30;;
11927;SDS011;6023;47.070;15.126;2022-12-29T12:21:18;2.80;;;2.17;;
11927;SDS011;6023;47.070;15.126;2022-12-29T12:23:55;2.53;;;2.00;;
11927;SDS011;6023;47.070;15.126;2022-12-29T12:26:48;3.63;;;2.10;;
11927;SDS011;6023;47.070;15.126;2022-12-29T12:29:24;2.67;;;1.90;;
11927;SDS011;6023;47.070;15.126;2022-12-29T12:31:57;3.17;;;2.50;;
11927;SDS011;6023;47.070;15.126;2022-12-29T12:34:28;3.40;;;2.57;;
11927;SDS011;6023;47.070;15.126;2022-12-29T12:37:06;2.53;;;1.90;;
11927;SDS011;6023;47.070;15.126;2022-12-29T12:39:44;2.10;;;1.90;;
11927;SDS011;6023;47.070;15.126;2022-12-29T12:42:21;2.00;;;1.80;;
11927;SDS011;6023;47.070;15.126;2022-12-29T12:44:58;3.40;;;2.50;;
11927;SDS011;6023;47.070;15.126;2022-12-29T12:47:44;1.93;;;1.83;;
11927;SDS011;6023;47.070;15.126;2022-12-29T12:50:29;2.87;;;2.20;;
11927;SDS011;6023;47.070;15.126;2022-12-29T12:53:12;2.77;;;2.40;;
11927;SDS011;6023;47.070;15.126;2022-12-29T12:56:12;3.93;;;3.40;;
11927;SDS011;6023;47.070;15.126;2022-12-29T12:58:57;2.73;;;2.20;;
11927;SDS011;6023;47.070;15.126;2022-12-29T13:01:38;2.23;;;2.10;;
11927;SDS011;6023;47.070;15.126;2022-12-29T13:04:28;4.20;;;2.60;;
11927;SDS011;6023;47.070;15.126;2022-12-29T13:07:07;2.40;;;2.10;;
11927;SDS011;6023;47.070;15.126;2022-12-29T13:09:48;2.40;;;1.80;;
11927;SDS011;6023;47.070;15.126;2022-12-29T13:12:27;3.00;;;2.50;;
11927;SDS011;6023;47.070;15.126;2022-12-29T13:15:06;3.07;;;2.60;;
11927;SDS011;6023;47.070;15.126;2022-12-29T13:17:41;12.73;;;8.27;;
11927;SDS011;6023;47.070;15.126;2022-12-29T13:20:18;16.20;;;10.57;;
11927;SDS011;6023;47.070;15.126;2022-12-29T13:22:55;31.73;;;23.37;;
11927;SDS011;6023;47.070;15.126;2022-12-29T13:25:31;3.87;;;2.67;;
11927;SDS011;6023;47.070;15.126;2022-12-29T13:28:05;5.27;;;4.30;;
11927;SDS011;6023;47.070;15.126;2022-12-29T13:30:40;3.00;;;2.40;;
11927;SDS011;6023;47.070;15.126;2022-12-29T13:33:21;6.90;;;5.57;;
11927;SDS011;6023;47.070;15.126;2022-12-29T13:35:54;5.60;;;4.73;;
11927;SDS011;6023;47.070;15.126;2022-12-29T13:38:29;3.63;;;3.03;;
11927;SDS011;6023;47.070;15.126;2022-12-29T13:41:03;5.03;;;4.53;;
11927;SDS011;6023;47.070;15.126;2022-12-29T13:43:35;8.50;;;6.83;;
11927;SDS011;6023;47.070;15.126;2022-12-29T13:46:09;5.87;;;5.23;;
11927;SDS011;6023;47.070;15.126;2022-12-29T13:51:27;4.20;;;3.77;;
11927;SDS011;6023;47.070;15.126;2022-12-29T13:54:01;4.57;;;4.07;;
11927;SDS011;6023;47.070;15.126;2022-12-29T13:56:38;5.00;;;4.50;;
11927;SDS011;6023;47.070;15.126;2022-12-29T13:59:11;2.93;;;2.40;;
11927;SDS011;6023;47.070;15.126;2022-12-29T14:01:47;3.47;;;3.10;;
11927;SDS011;6023;47.070;15.126;2022-12-29T14:04:22;7.00;;;5.33;;
11927;SDS011;6023;47.070;15.126;2022-12-29T14:06:58;3.50;;;2.87;;
11927;SDS011;6023;47.070;15.126;2022-12-29T14:15:19;2.77;;;2.30;;
11927;SDS011;6023;47.070;15.126;2022-12-29T14:18:02;5.00;;;4.47;;
11927;SDS011;6023;47.070;15.126;2022-12-29T14:20:33;48.27;;;34.90;;
11927;SDS011;6023;47.070;15.126;2022-12-29T14:23:15;95.53;;;69.83;;
11927;SDS011;6023;47.070;15.126;2022-12-29T14:26:00;17.73;;;13.10;;
11927;SDS011;6023;47.070;15.126;2022-12-29T14:28:46;12.17;;;8.73;;
11927;SDS011;6023;47.070;15.126;2022-12-29T14:37:00;7.77;;;4.70;;
11927;SDS011;6023;47.070;15.126;2022-12-29T14:39:32;6.13;;;5.17;;
11927;SDS011;6023;47.070;15.126;2022-12-29T14:42:10;3.77;;;3.03;;
11927;SDS011;6023;47.070;15.126;2022-12-29T14:44:59;5.03;;;3.37;;
11927;SDS011;6023;47.070;15.126;2022-12-29T14:47:40;3.13;;;2.40;;
11927;SDS011;6023;47.070;15.126;2022-12-29T14:50:12;5.77;;;3.20;;
11927;SDS011;6023;47.070;15.126;2022-12-29T14:52:45;3.83;;;2.67;;
11927;SDS011;6023;47.070;15.126;2022-12-29T14:55:31;2.50;;;2.30;;
11927;SDS011;6023;47.070;15.126;2022-12-29T14:58:12;5.20;;;2.90;;
11927;SDS011;6023;47.070;15.126;2022-12-29T15:00:44;6.23;;;3.90;;
11927;SDS011;6023;47.070;15.126;2022-12-29T15:03:17;15.63;;;12.50;;
11927;SDS011;6023;47.070;15.126;2022-12-29T15:05:54;10.10;;;6.97;;
11927;SDS011;6023;47.070;15.126;2022-12-29T15:08:32;10.50;;;8.47;;
11927;SDS011;6023;47.070;15.126;2022-12-29T15:11:10;14.97;;;11.80;;
11927;SDS011;6023;47.070;15.126;2022-12-29T15:13:45;15.53;;;11.23;;
11927;SDS011;6023;47.070;15.126;2022-12-29T15:16:22;14.17;;;10.70;;
11927;SDS011;6023;47.070;15.126;2022-12-29T15:18:52;15.07;;;10.47;;
11927;SDS011;6023;47.070;15.126;2022-12-29T15:21:22;17.43;;;11.77;;
11927;SDS011;6023;47.070;15.126;2022-12-29T15:23:52;14.03;;;12.00;;
11927;SDS011;6023;47.070;15.126;2022-12-29T15:26:21;14.10;;;12.10;;
11927;SDS011;6023;47.070;15.126;2022-12-29T15:28:51;9.80;;;8.20;;
11927;SDS011;6023;47.070;15.126;2022-12-29T15:31:23;11.83;;;10.37;;
11927;SDS011;6023;47.070;15.126;2022-12-29T15:34:01;17.20;;;12.27;;
11927;SDS011;6023;47.070;15.126;2022-12-29T15:36:38;21.67;;;16.70;;